createdAt,value
2022-07-29T00:03:39.002Z,22
2022-07-29T00:08:40.633Z,21.97
2022-07-29T00:13:41.984Z,21.89
2022-07-29T00:18:43.749Z,21.85
2022-07-29T00:23:44.999Z,21.83
2022-07-29T00:28:47.151Z,21.76
2022-07-29T00:33:48.763Z,21.72
2022-07-29T00:38:50.528Z,21.73
2022-07-29T00:43:52.563Z,21.75
2022-07-29T00:48:53.831Z,21.66
2022-07-29T00:53:55.743Z,21.61
2022-07-29T00:58:57.793Z,21.54
2022-07-29T01:29:08.576Z,21.29
2022-07-29T01:34:10.331Z,21.22
2022-07-29T01:39:11.998Z,21.15
2022-07-29T01:44:14.296Z,21.15
2022-07-29T01:54:17.169Z,21.15
2022-07-29T02:04:29.671Z,21.02
2022-07-29T02:09:21.214Z,20.98
2022-07-29T02:14:22.883Z,20.85
2022-07-29T02:19:24.223Z,20.83
2022-07-29T02:24:26.146Z,20.88
2022-07-29T02:29:27.531Z,20.87
2022-07-29T02:34:29.441Z,20.78
2022-07-29T02:39:31.020Z,20.76
2022-07-29T02:44:34.760Z,20.74
2022-07-29T02:49:34.591Z,20.71
2022-07-29T02:54:36.741Z,20.69
2022-07-29T02:59:38.933Z,20.75
2022-07-29T03:04:40.178Z,20.8
2022-07-29T03:09:41.717Z,20.74
2022-07-29T03:14:43.277Z,20.69
2022-07-29T03:19:44.723Z,20.63
2022-07-29T03:24:45.938Z,20.59
2022-07-29T03:29:50.106Z,20.55
2022-07-29T03:34:49.328Z,20.55
2022-07-29T03:39:50.920Z,20.53
2022-07-29T03:44:52.415Z,20.45
2022-07-29T03:49:53.725Z,20.37
2022-07-29T03:54:55.552Z,20.29
2022-07-29T03:59:56.947Z,20.19
2022-07-29T04:04:58.558Z,20.12
2022-07-29T04:10:00.544Z,20.11
2022-07-29T04:15:02.270Z,20.16
2022-07-29T04:20:04.151Z,20.12
2022-07-29T04:25:06.071Z,20.09
2022-07-29T04:30:08.173Z,20.04
2022-07-29T04:35:09.620Z,20.01
2022-07-29T04:40:11.272Z,20
2022-07-29T04:45:13.509Z,20.01
2022-07-29T04:50:15.028Z,20.12
2022-07-29T04:55:16.925Z,20.24
2022-07-29T05:00:18.584Z,20.26
2022-07-29T05:05:20.363Z,20.25
2022-07-29T05:10:21.746Z,20.31
2022-07-29T05:15:23.991Z,20.42
2022-07-29T05:20:25.289Z,20.57
2022-07-29T05:25:40.678Z,20.92
2022-07-29T05:30:28.990Z,21.28
2022-07-29T05:35:30.392Z,21.59
2022-07-29T05:40:31.591Z,21.91
2022-07-29T05:45:33.605Z,22.17
2022-07-29T05:50:34.930Z,22.48
2022-07-29T05:55:36.287Z,22.67
2022-07-29T06:00:37.633Z,23.11
2022-07-29T06:05:39.390Z,23.78
2022-07-29T06:10:41.434Z,24.27
2022-07-29T06:15:43.216Z,24.53
2022-07-29T06:20:44.782Z,25
2022-07-29T06:25:46.734Z,25.18
2022-07-29T06:30:48.704Z,25.31
2022-07-29T06:35:53.289Z,25.86
2022-07-29T06:40:52.177Z,26.53
2022-07-29T06:45:54.267Z,27.03
2022-07-29T06:50:55.982Z,27.27
2022-07-29T06:55:57.930Z,27.65
2022-07-29T07:00:59.966Z,28.14
2022-07-29T07:06:01.747Z,28.75
2022-07-29T07:11:03.103Z,28.85
2022-07-29T07:16:05.260Z,28.82
2022-07-29T07:21:06.987Z,29.11
2022-07-29T07:26:08.332Z,29.54
2022-07-29T07:31:09.597Z,30.02
2022-07-29T07:36:11.667Z,30.5
2022-07-29T07:41:13.239Z,30.73
2022-07-29T07:46:15.330Z,30.47
2022-07-29T07:51:16.987Z,30.28
2022-07-29T07:56:18.231Z,30.45
2022-07-29T08:01:20.489Z,30.78
2022-07-29T08:06:21.644Z,31.11
2022-07-29T08:11:23.796Z,31.39
2022-07-29T08:16:25.780Z,31.32
2022-07-29T08:21:27.366Z,31.34
2022-07-29T08:26:29.160Z,31.5
2022-07-29T08:31:31.307Z,31.56
2022-07-29T08:36:33.002Z,31.26
2022-07-29T08:41:34.122Z,31.24
2022-07-29T08:46:36.044Z,31.46
2022-07-29T08:51:37.152Z,30.96
2022-07-29T08:56:38.654Z,31.41
2022-07-29T09:01:42.445Z,31.82
2022-07-29T09:06:41.637Z,31.87
2022-07-29T09:11:43.169Z,32.24
2022-07-29T09:16:52.979Z,32.59
2022-07-29T09:21:46.953Z,32.13
2022-07-29T09:26:48.446Z,32.03
2022-07-29T09:31:49.860Z,32.16
2022-07-29T09:36:51.882Z,32.15
2022-07-29T09:41:53.953Z,32.18
2022-07-29T09:46:55.778Z,32.04
2022-07-29T09:51:56.814Z,32.24
2022-07-29T09:56:58.532Z,32.15
2022-07-29T10:01:59.730Z,32.02
2022-07-29T10:07:04.579Z,31.94
2022-07-29T10:12:03.300Z,32.03
2022-07-29T10:17:05.387Z,32.18
2022-07-29T10:22:06.886Z,32.18
2022-07-29T10:27:08.454Z,32.09
2022-07-29T10:32:09.818Z,32.23
2022-07-29T10:37:10.993Z,32.02
2022-07-29T10:42:13.018Z,32.23
2022-07-29T10:47:14.635Z,32.31
2022-07-29T10:52:15.816Z,32.45
2022-07-29T10:57:17.895Z,32.61
2022-07-29T11:02:36.707Z,32.53
2022-07-29T11:07:20.606Z,32.04
2022-07-29T11:12:22.623Z,32.03
2022-07-29T11:17:23.842Z,32.21
2022-07-29T11:17:37.475Z,32.22
2022-07-29T11:22:32.047Z,32.28
2022-07-29T11:27:34.195Z,32.25
2022-07-29T11:32:36.113Z,32.38
2022-07-29T11:37:42.597Z,32.2
2022-07-29T11:42:41.702Z,32.08
2022-07-29T11:47:41.073Z,31.88
2022-07-29T11:52:49.521Z,31.81
2022-07-29T11:57:44.704Z,31.76
2022-07-29T12:02:48.414Z,31.8
2022-07-29T12:07:48.746Z,31.86
2022-07-29T12:12:50.829Z,31.83
2022-07-29T12:17:52.883Z,31.82
2022-07-29T12:22:54.997Z,31.52
2022-07-29T12:27:56.432Z,31.4
2022-07-29T12:32:58.257Z,31.22
2022-07-29T12:37:59.622Z,31.2
2022-07-29T12:43:00.860Z,31.22
2022-07-29T12:48:02.747Z,31.22
2022-07-29T12:53:04.000Z,31.11
2022-07-29T12:58:05.579Z,31.05
2022-07-29T13:03:07.254Z,31.09
2022-07-29T13:08:08.021Z,30.96
2022-07-29T13:13:09.925Z,30.8
2022-07-29T13:18:13.731Z,30.59
2022-07-29T13:23:13.339Z,30.39
2022-07-29T13:28:15.253Z,30.22
2022-07-29T13:33:16.392Z,30.05
2022-07-29T13:38:17.652Z,29.75
2022-07-29T13:43:19.663Z,29.45
2022-07-29T13:48:21.818Z,29.28
2022-07-29T13:53:26.708Z,29.1
2022-07-29T13:58:25.222Z,28.95
2022-07-29T14:03:26.801Z,28.91
2022-07-29T14:08:28.868Z,28.88
2022-07-29T14:13:30.948Z,28.87
2022-07-29T14:18:32.501Z,28.85
2022-07-29T14:23:34.485Z,28.77
2022-07-29T14:28:38.999Z,28.56
2022-07-29T14:33:38.066Z,28.4
2022-07-29T14:38:39.982Z,28.21
2022-07-29T14:43:42.063Z,27.96
2022-07-29T14:48:43.761Z,27.88
2022-07-29T14:53:45.821Z,27.82
2022-07-29T14:58:51.799Z,27.79
2022-07-29T15:03:49.529Z,27.78
2022-07-29T15:08:51.154Z,27.78
2022-07-29T15:13:52.560Z,27.75
2022-07-29T15:18:53.799Z,27.72
2022-07-29T15:23:55.928Z,27.73
2022-07-29T15:28:57.720Z,27.73
2022-07-29T15:34:03.650Z,27.68
2022-07-29T16:04:09.183Z,27.47
2022-07-29T16:09:10.704Z,27.38
2022-07-29T16:19:13.781Z,27.26
2022-07-29T16:39:19.417Z,27.1
2022-07-29T16:44:21.484Z,27.02
2022-07-29T16:49:23.460Z,26.97
2022-07-29T17:04:28.109Z,26.66
2022-07-29T17:09:30.198Z,26.55
2022-07-29T17:14:32.330Z,26.43
2022-07-29T17:19:33.614Z,26.29
2022-07-29T17:24:35.610Z,26.1
2022-07-29T17:29:37.195Z,25.9
2022-07-29T17:34:39.164Z,25.84
2022-07-29T17:39:40.926Z,25.58
2022-07-29T17:44:42.700Z,24.88
2022-07-29T17:49:44.201Z,24.36
2022-07-29T17:54:46.024Z,23.72
2022-07-29T17:59:47.569Z,23.22
2022-07-29T18:04:50.627Z,22.76
2022-07-29T18:09:50.364Z,22.59
2022-07-29T18:14:51.566Z,22.3
2022-07-29T18:19:53.115Z,21.87
2022-07-29T18:24:54.573Z,21.62
2022-07-29T18:29:55.804Z,21.52
2022-07-29T18:34:57.082Z,21.43
2022-07-29T18:39:59.610Z,21.4
2022-07-29T18:45:00.152Z,21.43
2022-07-29T18:50:02.212Z,21.32
2022-07-29T18:55:04.010Z,21.22
2022-07-29T19:00:05.277Z,21.09
2022-07-29T19:05:07.258Z,20.92
2022-07-29T19:10:08.836Z,20.76
2022-07-29T19:15:10.814Z,20.72
2022-07-29T19:20:12.454Z,20.68
2022-07-29T19:25:14.154Z,20.53
2022-07-29T19:30:15.907Z,20.16
2022-07-29T19:35:17.963Z,19.96
2022-07-29T19:40:19.649Z,19.79
2022-07-29T19:45:21.463Z,19.76
2022-07-29T19:50:23.228Z,19.71
2022-07-29T19:55:25.004Z,19.82
2022-07-29T20:00:26.699Z,19.79
2022-07-29T20:05:28.384Z,19.65
2022-07-29T20:10:30.228Z,19.64
2022-07-29T20:15:32.242Z,19.57
2022-07-29T20:20:33.781Z,19.51
2022-07-29T20:25:35.022Z,19.51
2022-07-29T20:30:38.370Z,19.6
2022-07-29T20:35:38.752Z,19.67
2022-07-29T20:40:40.716Z,19.54
2022-07-29T20:45:42.666Z,19.32
2022-07-29T20:50:44.573Z,19.29
2022-07-29T20:55:46.184Z,19.11
2022-07-29T21:00:48.260Z,19.11
2022-07-29T21:05:50.071Z,19.18
2022-07-29T21:10:51.250Z,19.27
2022-07-29T21:15:52.565Z,19.25
2022-07-29T21:20:54.311Z,19.18
2022-07-29T21:25:56.214Z,19.16
2022-07-29T21:30:57.702Z,19.16
2022-07-29T21:36:15.306Z,19.09
2022-07-29T21:41:00.675Z,19.15
2022-07-29T21:46:01.958Z,19.31
2022-07-29T21:51:04.194Z,19.45
2022-07-29T21:56:06.024Z,19.44
2022-07-29T22:16:11.851Z,19.49
2022-07-29T22:21:13.975Z,19.57
2022-07-29T22:26:15.344Z,19.69
2022-07-29T22:31:16.789Z,19.68
2022-07-29T22:36:18.117Z,19.53
2022-07-29T22:41:20.098Z,19.39
2022-07-29T22:46:22.212Z,19.25
2022-07-29T22:51:23.490Z,19.16
2022-07-29T22:56:24.886Z,19.06
2022-07-29T23:01:36.058Z,18.93
2022-07-29T23:06:27.588Z,18.79
2022-07-29T23:11:29.549Z,18.69
2022-07-29T23:16:31.172Z,18.67
2022-07-29T23:21:32.763Z,18.65
2022-07-29T23:26:34.808Z,18.7
2022-07-29T23:31:39.448Z,18.7
2022-07-29T23:36:38.413Z,18.74
2022-07-29T23:41:39.874Z,18.85
2022-07-29T23:46:41.205Z,18.94
2022-07-29T23:51:42.494Z,18.77
2022-07-29T23:56:44.243Z,18.64
